WetterOnline ( https://www.wetteronline.de )

Wetter aktuell Bexbach

Aktuelles Wetter: Tholey (398m)

6-stündlich | Neueste Meldungen
Ortszeit Temperatur Wetter
Do, 29.07. 2:00 14.7° C bewölkt
Mi, 28.07. 20:00 19.0° C leicht bewölkt
Mi, 28.07. 14:00 18.6° C bedeckt
Mi, 28.07. 8:00 14.6° C bedeckt
Mi, 28.07. 2:00 14.2° C wolkig
Di, 27.07. 20:00 16.8° C leichter Regen
Di, 27.07. 14:00 20.6° C wolkig
Di, 27.07. 8:00 15.8° C bedeckt
Ortszeit Temperatur Wetter
Do, 29.07. 7:30 14.1° C fast wolkenlos
Do, 29.07. 7:20 14.1° C fast wolkenlos
Do, 29.07. 7:10 14.0° C leicht bewölkt
Do, 29.07. 7:00 14.1° C bedeckt
Do, 29.07. 6:50 14.1° C bedeckt
Do, 29.07. 6:40 14.1° C bedeckt
Do, 29.07. 6:30 14.1° C bedeckt
Do, 29.07. 6:00 13.9° C bedeckt
Do, 29.07. 5:30 13.9° C bedeckt
Do, 29.07. 5:00 13.7° C bedeckt
Do, 29.07. 4:30 14.2° C bewölkt
Ortszeit Relative Feuchte Sichtweite
Do, 29.07. 2:00 81% 55 km
Mi, 28.07. 20:00 66% 60 km
Mi, 28.07. 14:00 78% 60 km
Mi, 28.07. 8:00 96% 14 km
Mi, 28.07. 2:00 97% 5.0 km
Di, 27.07. 20:00 81% 40 km
Di, 27.07. 14:00 72% 30 km
Di, 27.07. 8:00 90% 29 km
Ortszeit Relative Feuchte Sichtweite
Do, 29.07. 7:30 84% 40 km
Do, 29.07. 7:20 84% -
Do, 29.07. 7:10 85% -
Do, 29.07. 7:00 85% -
Do, 29.07. 6:50 85% -
Do, 29.07. 6:40 86% -
Do, 29.07. 6:30 85% 45 km
Do, 29.07. 6:00 86% 45 km
Do, 29.07. 5:30 85% 40 km
Do, 29.07. 5:00 86% 45 km
Do, 29.07. 4:30 82% 55 km
Ortszeit Niederschlagsmenge Niederschlagsart
Do, 29.07. 2:00 0.0 l/m2 in 6 Std. -
Mi, 28.07. 20:00 0.7 l/m2 in 12 Std. Regen
Mi, 28.07. 14:00 0.7 l/m2 in 6 Std. Regen
Mi, 28.07. 8:00 5 l/m2 in 12 Std. Regen
Mi, 28.07. 2:00 4 l/m2 in 6 Std. Regen
Di, 27.07. 20:00 0.2 l/m2 in 12 Std. Regen
Di, 27.07. 14:00 0.0 l/m2 in 6 Std. -
Di, 27.07. 8:00 0.0 l/m2 in 12 Std. -
Ortszeit Niederschlagsmenge Niederschlagsart
Do, 29.07. 7:30 0.0 l/m2 in 1 Std. -
Do, 29.07. 7:20 keine Meldung -
Do, 29.07. 7:10 keine Meldung -
Do, 29.07. 7:00 0.0 l/m2 in 1 Std. -
Do, 29.07. 6:50 keine Meldung -
Do, 29.07. 6:40 keine Meldung -
Do, 29.07. 6:30 0.0 l/m2 in 1 Std. -
Do, 29.07. 6:00 0.0 l/m2 in 1 Std. -
Do, 29.07. 5:30 0.0 l/m2 in 1 Std. -
Do, 29.07. 5:00 0.0 l/m2 in 1 Std. -
Do, 29.07. 4:30 0.0 l/m2 in 1 Std. -
Ortszeit Stärke Spitze Richtung
km/h Bft. km/h Grad Sektor
Do, 29.07. 2:00 11 2 40 250° W
Mi, 28.07. 20:00 22 4 40 250° W
Mi, 28.07. 14:00 25 4 40 250° W
Mi, 28.07. 8:00 4 1 18 190° S
Mi, 28.07. 2:00 9 2 26 250° W
Di, 27.07. 20:00 17 3 41 290° W
Di, 27.07. 14:00 13 3 22 160° S
Di, 27.07. 8:00 4 1 11 240° SW
Ortszeit Stärke Spitze Richtung
km/h Bft. km/h Grad Sektor
Do, 29.07. 7:30 19 3 26 240° SW
Do, 29.07. 7:20 19 3 - 240° SW
Do, 29.07. 7:10 18 3 - 250° W
Do, 29.07. 7:00 14 3 22 250° W
Do, 29.07. 6:50 14 3 - 250° W
Do, 29.07. 6:40 13 3 - 250° W
Do, 29.07. 6:30 13 3 17 250° W
Do, 29.07. 6:00 11 2 14 250° W
Do, 29.07. 5:30 9 2 15 260° W
Do, 29.07. 5:00 11 2 15 250° W
Do, 29.07. 4:30 9 2 13 260° W
Ortszeit Untergrenze Bedeckung Gattung
total tief tief mittel hoch
Do, 29.07. 2:00 1500 m 7/8 7/8 - - -
Mi, 28.07. 20:00 1110 m 3/8 3/8 - - -
Mi, 28.07. 14:00 540 m 8/8 8/8 - - -
Mi, 28.07. 8:00 90 m 8/8 8/8 - - -
Mi, 28.07. 2:00 150 m 7/8 1/8 - - -
Di, 27.07. 20:00 570 m 8/8 8/8 - - -
Di, 27.07. 14:00 510 m 8/8 1/8 - - -
Di, 27.07. 8:00 6000 m 8/8 8/8 - - -
Ortszeit Bedeckungsgrad in Achtel und Wolkenuntergrenze
Do, 29.07. 7:30 1(1500m)
Do, 29.07. 7:20 1(1500m)
Do, 29.07. 7:10 3(1500m)
Do, 29.07. 7:00 8(1500m)
Do, 29.07. 6:50 8(1500m)
Do, 29.07. 6:40 8(1500m)
Do, 29.07. 6:30 8(1500m)
Do, 29.07. 6:00 1(1350m) 8(1500m)
Do, 29.07. 5:30 8(1800m)
Do, 29.07. 5:00 8(1800m)
Do, 29.07. 4:30 3(1500m) 7(2100m)
Ortszeit Luftdruck NN (hPa) Tendenz (hPa in 3 Std.)
Do, 29.07. 2:00 1014 - 0,2
Mi, 28.07. 20:00 1013 + 0,1
Mi, 28.07. 14:00 1013 + 0,2
Mi, 28.07. 8:00 1013 - 0,1
Mi, 28.07. 2:00 1014 - 0,1
Di, 27.07. 20:00 1013 - 0,5
Di, 27.07. 14:00 1013 - 0,5
Di, 27.07. 8:00 1014 - 0,3
Ortszeit Luftdruck NN (hPa) Tendenz (hPa in 3 Std.)
Do, 29.07. 7:30 1015 + 0,5
Do, 29.07. 7:20 1015 keine Meldung
Do, 29.07. 7:10 1015 keine Meldung
Do, 29.07. 7:00 1015 + 0,6
Do, 29.07. 6:50 1015 keine Meldung
Do, 29.07. 6:40 1015 keine Meldung
Do, 29.07. 6:30 1014 + 0,4
Do, 29.07. 6:00 1014 + 0,2
Do, 29.07. 5:30 1014 0,0
Do, 29.07. 5:00 1014 - 0,5
Do, 29.07. 4:30 1014 - 0,7
Ortszeit Schneehöhe (cm)
Do, 29.07. 2:00 -
Mi, 28.07. 20:00 -
Mi, 28.07. 14:00 -
Mi, 28.07. 8:00 -
Mi, 28.07. 2:00 -
Di, 27.07. 20:00 -
Di, 27.07. 14:00 -
Di, 27.07. 8:00 -
Ortszeit Schneehöhe (cm)
Do, 29.07. 7:30 -
Do, 29.07. 7:20 -
Do, 29.07. 7:10 -
Do, 29.07. 7:00 -
Do, 29.07. 6:50 -
Do, 29.07. 6:40 -
Do, 29.07. 6:30 -
Do, 29.07. 6:00 -
Do, 29.07. 5:30 -
Do, 29.07. 5:00 -
Do, 29.07. 4:30 -
Link zu dieser Seite / Seite empfehlen

Das Wetter in ...